sensor_id;sensor_type;location;lat;lon;timestamp;P1;durP1;ratioP1;P2;durP2;ratioP2
22490;SDS011;11412;50.802;4.350;2022-08-20T00:00:26;5.65;;;3.45;;
22490;SDS011;11412;50.802;4.350;2022-08-20T00:02:59;7.30;;;3.80;;
22490;SDS011;11412;50.802;4.350;2022-08-20T00:05:29;4.93;;;3.85;;
22490;SDS011;11412;50.802;4.350;2022-08-20T00:08:01;6.22;;;3.95;;
22490;SDS011;11412;50.802;4.350;2022-08-20T00:10:30;5.88;;;4.05;;
22490;SDS011;11412;50.802;4.350;2022-08-20T00:12:58;6.93;;;4.13;;
22490;SDS011;11412;50.802;4.350;2022-08-20T00:15:26;6.50;;;4.30;;
22490;SDS011;11412;50.802;4.350;2022-08-20T00:17:55;6.07;;;4.22;;
22490;SDS011;11412;50.802;4.350;2022-08-20T00:20:26;10.27;;;4.03;;
22490;SDS011;11412;50.802;4.350;2022-08-20T00:22:55;10.30;;;3.67;;
22490;SDS011;11412;50.802;4.350;2022-08-20T00:25:22;12.60;;;4.90;;
22490;SDS011;11412;50.802;4.350;2022-08-20T00:27:49;7.25;;;3.80;;
22490;SDS011;11412;50.802;4.350;2022-08-20T00:30:15;6.38;;;3.58;;
22490;SDS011;11412;50.802;4.350;2022-08-20T00:35:13;10.65;;;3.83;;
22490;SDS011;11412;50.802;4.350;2022-08-20T00:37:39;6.97;;;3.85;;
22490;SDS011;11412;50.802;4.350;2022-08-20T00:40:06;10.27;;;3.95;;
22490;SDS011;11412;50.802;4.350;2022-08-20T00:42:43;8.88;;;4.00;;
22490;SDS011;11412;50.802;4.350;2022-08-20T00:45:12;7.18;;;3.60;;
22490;SDS011;11412;50.802;4.350;2022-08-20T00:47:38;10.45;;;4.07;;
22490;SDS011;11412;50.802;4.350;2022-08-20T00:50:07;8.23;;;4.15;;
22490;SDS011;11412;50.802;4.350;2022-08-20T00:52:33;9.25;;;4.07;;
22490;SDS011;11412;50.802;4.350;2022-08-20T00:54:59;11.63;;;3.90;;
22490;SDS011;11412;50.802;4.350;2022-08-20T00:57:29;10.13;;;3.85;;
22490;SDS011;11412;50.802;4.350;2022-08-20T00:59:59;11.32;;;3.83;;
22490;SDS011;11412;50.802;4.350;2022-08-20T01:02:30;11.07;;;3.63;;
22490;SDS011;11412;50.802;4.350;2022-08-20T01:04:56;12.48;;;3.90;;
22490;SDS011;11412;50.802;4.350;2022-08-20T01:07:23;10.70;;;4.53;;
22490;SDS011;11412;50.802;4.350;2022-08-20T01:09:59;6.30;;;3.72;;
22490;SDS011;11412;50.802;4.350;2022-08-20T01:12:41;10.07;;;3.47;;
22490;SDS011;11412;50.802;4.350;2022-08-20T01:15:11;11.95;;;3.88;;
22490;SDS011;11412;50.802;4.350;2022-08-20T01:17:46;14.52;;;4.55;;
22490;SDS011;11412;50.802;4.350;2022-08-20T01:20:22;10.32;;;3.53;;
22490;SDS011;11412;50.802;4.350;2022-08-20T01:22:59;7.97;;;3.28;;
22490;SDS011;11412;50.802;4.350;2022-08-20T01:25:58;6.70;;;3.15;;
22490;SDS011;11412;50.802;4.350;2022-08-20T01:31:27;10.55;;;3.60;;
22490;SDS011;11412;50.802;4.350;2022-08-20T01:33:55;6.50;;;3.22;;
22490;SDS011;11412;50.802;4.350;2022-08-20T01:36:24;7.18;;;2.90;;
22490;SDS011;11412;50.802;4.350;2022-08-20T01:38:54;9.77;;;3.60;;
22490;SDS011;11412;50.802;4.350;2022-08-20T01:43:46;11.73;;;3.13;;
22490;SDS011;11412;50.802;4.350;2022-08-20T01:46:13;12.70;;;3.60;;
22490;SDS011;11412;50.802;4.350;2022-08-20T01:48:41;11.52;;;3.20;;
22490;SDS011;11412;50.802;4.350;2022-08-20T01:51:12;10.38;;;3.55;;
22490;SDS011;11412;50.802;4.350;2022-08-20T01:53:43;13.77;;;3.78;;
22490;SDS011;11412;50.802;4.350;2022-08-20T01:56:13;7.93;;;3.42;;
22490;SDS011;11412;50.802;4.350;2022-08-20T01:58:44;8.73;;;3.22;;
22490;SDS011;11412;50.802;4.350;2022-08-20T02:01:20;11.23;;;2.90;;
22490;SDS011;11412;50.802;4.350;2022-08-20T02:04:05;11.52;;;3.25;;
22490;SDS011;11412;50.802;4.350;2022-08-20T02:06:35;9.02;;;3.10;;
22490;SDS011;11412;50.802;4.350;2022-08-20T02:09:06;10.30;;;3.33;;
22490;SDS011;11412;50.802;4.350;2022-08-20T02:11:34;5.80;;;2.88;;
22490;SDS011;11412;50.802;4.350;2022-08-20T02:14:01;7.25;;;3.20;;
22490;SDS011;11412;50.802;4.350;2022-08-20T02:16:30;15.13;;;3.40;;
22490;SDS011;11412;50.802;4.350;2022-08-20T02:19:01;9.63;;;3.42;;
22490;SDS011;11412;50.802;4.350;2022-08-20T02:21:34;10.38;;;3.35;;
22490;SDS011;11412;50.802;4.350;2022-08-20T02:24:02;10.05;;;3.85;;
22490;SDS011;11412;50.802;4.350;2022-08-20T02:26:28;11.10;;;3.28;;
22490;SDS011;11412;50.802;4.350;2022-08-20T02:28:55;13.43;;;4.13;;
22490;SDS011;11412;50.802;4.350;2022-08-20T02:31:22;10.40;;;3.47;;
22490;SDS011;11412;50.802;4.350;2022-08-20T02:33:49;10.18;;;3.55;;
22490;SDS011;11412;50.802;4.350;2022-08-20T02:36:15;11.10;;;3.83;;
22490;SDS011;11412;50.802;4.350;2022-08-20T02:38:42;12.73;;;3.70;;
22490;SDS011;11412;50.802;4.350;2022-08-20T02:41:08;12.60;;;3.78;;
22490;SDS011;11412;50.802;4.350;2022-08-20T02:43:36;8.25;;;3.85;;
22490;SDS011;11412;50.802;4.350;2022-08-20T02:46:02;12.82;;;4.13;;
22490;SDS011;11412;50.802;4.350;2022-08-20T02:48:30;19.00;;;4.68;;
22490;SDS011;11412;50.802;4.350;2022-08-20T02:50:59;11.32;;;5.13;;
22490;SDS011;11412;50.802;4.350;2022-08-20T02:53:27;11.48;;;4.90;;
22490;SDS011;11412;50.802;4.350;2022-08-20T02:55:55;8.38;;;3.53;;
22490;SDS011;11412;50.802;4.350;2022-08-20T02:58:21;16.05;;;4.05;;
22490;SDS011;11412;50.802;4.350;2022-08-20T03:00:48;9.95;;;3.67;;
22490;SDS011;11412;50.802;4.350;2022-08-20T03:03:14;12.82;;;3.97;;
22490;SDS011;11412;50.802;4.350;2022-08-20T03:05:44;10.27;;;3.60;;
22490;SDS011;11412;50.802;4.350;2022-08-20T03:08:10;15.85;;;4.03;;
22490;SDS011;11412;50.802;4.350;2022-08-20T03:10:38;10.18;;;4.20;;
22490;SDS011;11412;50.802;4.350;2022-08-20T03:13:05;13.55;;;4.70;;
22490;SDS011;11412;50.802;4.350;2022-08-20T03:15:36;14.35;;;4.45;;
22490;SDS011;11412;50.802;4.350;2022-08-20T03:18:03;12.95;;;4.18;;
22490;SDS011;11412;50.802;4.350;2022-08-20T03:20:29;11.40;;;4.40;;
22490;SDS011;11412;50.802;4.350;2022-08-20T03:22:55;10.25;;;4.72;;
22490;SDS011;11412;50.802;4.350;2022-08-20T03:25:21;21.23;;;4.22;;
22490;SDS011;11412;50.802;4.350;2022-08-20T03:27:48;9.00;;;4.30;;
22490;SDS011;11412;50.802;4.350;2022-08-20T03:30:14;16.20;;;4.95;;
22490;SDS011;11412;50.802;4.350;2022-08-20T03:32:42;10.05;;;4.00;;
22490;SDS011;11412;50.802;4.350;2022-08-20T03:35:09;12.60;;;4.35;;
22490;SDS011;11412;50.802;4.350;2022-08-20T03:37:37;12.10;;;4.20;;
22490;SDS011;11412;50.802;4.350;2022-08-20T03:40:05;12.23;;;4.10;;
22490;SDS011;11412;50.802;4.350;2022-08-20T03:42:33;13.07;;;4.00;;
22490;SDS011;11412;50.802;4.350;2022-08-20T03:45:00;15.38;;;4.72;;
22490;SDS011;11412;50.802;4.350;2022-08-20T03:47:26;14.32;;;4.25;;
22490;SDS011;11412;50.802;4.350;2022-08-20T03:49:56;17.58;;;4.55;;
22490;SDS011;11412;50.802;4.350;2022-08-20T03:52:26;10.90;;;4.30;;
22490;SDS011;11412;50.802;4.350;2022-08-20T03:54:53;15.98;;;4.68;;
22490;SDS011;11412;50.802;4.350;2022-08-20T03:57:20;11.30;;;4.57;;
22490;SDS011;11412;50.802;4.350;2022-08-20T03:59:45;17.40;;;4.45;;
22490;SDS011;11412;50.802;4.350;2022-08-20T04:02:11;10.48;;;4.38;;
22490;SDS011;11412;50.802;4.350;2022-08-20T04:04:38;14.88;;;3.92;;
22490;SDS011;11412;50.802;4.350;2022-08-20T04:07:08;21.60;;;5.07;;
22490;SDS011;11412;50.802;4.350;2022-08-20T04:09:40;16.25;;;4.88;;
22490;SDS011;11412;50.802;4.350;2022-08-20T04:12:07;18.20;;;4.97;;
22490;SDS011;11412;50.802;4.350;2022-08-20T04:14:36;15.90;;;4.72;;
22490;SDS011;11412;50.802;4.350;2022-08-20T04:17:08;13.98;;;4.28;;
22490;SDS011;11412;50.802;4.350;2022-08-20T04:19:36;17.63;;;5.43;;
22490;SDS011;11412;50.802;4.350;2022-08-20T04:22:03;12.57;;;4.70;;
22490;SDS011;11412;50.802;4.350;2022-08-20T04:24:30;15.43;;;5.43;;
22490;SDS011;11412;50.802;4.350;2022-08-20T04:26:56;14.05;;;4.53;;
22490;SDS011;11412;50.802;4.350;2022-08-20T04:29:23;15.20;;;5.07;;
22490;SDS011;11412;50.802;4.350;2022-08-20T04:31:50;15.68;;;5.38;;
22490;SDS011;11412;50.802;4.350;2022-08-20T04:34:16;13.15;;;5.10;;
22490;SDS011;11412;50.802;4.350;2022-08-20T04:36:44;14.63;;;4.80;;
22490;SDS011;11412;50.802;4.350;2022-08-20T04:39:12;14.75;;;4.38;;
22490;SDS011;11412;50.802;4.350;2022-08-20T04:41:38;18.75;;;4.72;;
22490;SDS011;11412;50.802;4.350;2022-08-20T04:44:05;16.17;;;5.93;;
22490;SDS011;11412;50.802;4.350;2022-08-20T04:46:31;15.15;;;5.20;;
22490;SDS011;11412;50.802;4.350;2022-08-20T04:48:57;11.00;;;5.88;;
22490;SDS011;11412;50.802;4.350;2022-08-20T04:51:24;21.40;;;5.32;;
22490;SDS011;11412;50.802;4.350;2022-08-20T04:53:51;11.45;;;5.28;;
22490;SDS011;11412;50.802;4.350;2022-08-20T04:56:18;12.27;;;4.88;;
22490;SDS011;11412;50.802;4.350;2022-08-20T04:58:47;15.65;;;5.20;;
22490;SDS011;11412;50.802;4.350;2022-08-20T05:01:15;13.30;;;5.40;;
22490;SDS011;11412;50.802;4.350;2022-08-20T05:03:41;19.15;;;5.80;;
22490;SDS011;11412;50.802;4.350;2022-08-20T05:06:07;18.10;;;5.45;;
22490;SDS011;11412;50.802;4.350;2022-08-20T05:08:35;15.95;;;5.22;;
22490;SDS011;11412;50.802;4.350;2022-08-20T05:11:02;14.52;;;5.13;;
22490;SDS011;11412;50.802;4.350;2022-08-20T05:13:29;15.65;;;5.50;;
22490;SDS011;11412;50.802;4.350;2022-08-20T05:15:55;14.27;;;5.20;;
22490;SDS011;11412;50.802;4.350;2022-08-20T05:18:22;18.40;;;5.90;;
22490;SDS011;11412;50.802;4.350;2022-08-20T05:20:50;15.70;;;5.60;;
22490;SDS011;11412;50.802;4.350;2022-08-20T05:23:16;21.40;;;5.70;;
22490;SDS011;11412;50.802;4.350;2022-08-20T05:25:44;19.25;;;6.15;;
22490;SDS011;11412;50.802;4.350;2022-08-20T05:28:19;14.20;;;5.10;;
22490;SDS011;11412;50.802;4.350;2022-08-20T05:30:47;18.05;;;5.95;;
22490;SDS011;11412;50.802;4.350;2022-08-20T05:33:14;12.63;;;5.47;;
22490;SDS011;11412;50.802;4.350;2022-08-20T05:35:42;11.13;;;5.50;;
22490;SDS011;11412;50.802;4.350;2022-08-20T05:38:09;12.48;;;4.60;;
22490;SDS011;11412;50.802;4.350;2022-08-20T05:40:37;18.88;;;5.95;;
22490;SDS011;11412;50.802;4.350;2022-08-20T05:43:04;17.55;;;5.55;;
22490;SDS011;11412;50.802;4.350;2022-08-20T05:45:30;14.80;;;5.82;;
22490;SDS011;11412;50.802;4.350;2022-08-20T05:47:57;19.73;;;5.88;;
22490;SDS011;11412;50.802;4.350;2022-08-20T05:50:27;20.52;;;5.70;;
22490;SDS011;11412;50.802;4.350;2022-08-20T05:52:53;21.38;;;6.15;;
22490;SDS011;11412;50.802;4.350;2022-08-20T05:55:18;16.75;;;5.50;;
22490;SDS011;11412;50.802;4.350;2022-08-20T05:57:44;22.05;;;6.35;;
22490;SDS011;11412;50.802;4.350;2022-08-20T06:00:11;19.50;;;6.30;;
22490;SDS011;11412;50.802;4.350;2022-08-20T06:02:38;24.25;;;6.35;;
22490;SDS011;11412;50.802;4.350;2022-08-20T06:05:22;13.32;;;5.20;;
22490;SDS011;11412;50.802;4.350;2022-08-20T06:07:48;16.92;;;5.57;;
22490;SDS011;11412;50.802;4.350;2022-08-20T06:10:17;19.73;;;6.43;;
22490;SDS011;11412;50.802;4.350;2022-08-20T06:12:43;14.30;;;5.60;;
22490;SDS011;11412;50.802;4.350;2022-08-20T06:15:09;15.73;;;5.32;;
22490;SDS011;11412;50.802;4.350;2022-08-20T06:17:36;22.48;;;6.18;;
22490;SDS011;11412;50.802;4.350;2022-08-20T06:20:03;26.08;;;6.35;;
22490;SDS011;11412;50.802;4.350;2022-08-20T06:22:31;13.52;;;5.32;;
22490;SDS011;11412;50.802;4.350;2022-08-20T06:24:58;15.45;;;6.15;;
22490;SDS011;11412;50.802;4.350;2022-08-20T06:27:24;17.60;;;6.60;;
22490;SDS011;11412;50.802;4.350;2022-08-20T06:29:50;19.80;;;5.97;;
22490;SDS011;11412;50.802;4.350;2022-08-20T06:32:16;15.85;;;7.38;;
22490;SDS011;11412;50.802;4.350;2022-08-20T06:34:43;13.35;;;5.55;;
22490;SDS011;11412;50.802;4.350;2022-08-20T06:37:16;14.82;;;5.88;;
22490;SDS011;11412;50.802;4.350;2022-08-20T06:39:44;18.55;;;5.68;;
22490;SDS011;11412;50.802;4.350;2022-08-20T06:42:09;17.17;;;6.07;;
22490;SDS011;11412;50.802;4.350;2022-08-20T06:44:36;14.38;;;6.00;;
22490;SDS011;11412;50.802;4.350;2022-08-20T06:47:02;14.73;;;5.82;;
22490;SDS011;11412;50.802;4.350;2022-08-20T06:49:29;16.38;;;5.50;;
22490;SDS011;11412;50.802;4.350;2022-08-20T06:51:58;17.17;;;5.50;;
22490;SDS011;11412;50.802;4.350;2022-08-20T06:54:23;18.58;;;5.93;;
22490;SDS011;11412;50.802;4.350;2022-08-20T06:56:49;13.45;;;5.78;;
22490;SDS011;11412;50.802;4.350;2022-08-20T06:59:18;22.90;;;5.78;;
22490;SDS011;11412;50.802;4.350;2022-08-20T07:01:43;19.55;;;5.97;;
22490;SDS011;11412;50.802;4.350;2022-08-20T07:04:09;18.42;;;6.40;;
22490;SDS011;11412;50.802;4.350;2022-08-20T07:06:35;15.80;;;6.22;;
22490;SDS011;11412;50.802;4.350;2022-08-20T07:09:00;25.83;;;6.07;;
22490;SDS011;11412;50.802;4.350;2022-08-20T07:11:26;14.73;;;6.00;;
22490;SDS011;11412;50.802;4.350;2022-08-20T07:13:52;18.42;;;5.53;;
22490;SDS011;11412;50.802;4.350;2022-08-20T07:16:17;16.73;;;5.72;;
22490;SDS011;11412;50.802;4.350;2022-08-20T07:18:43;15.85;;;6.15;;
22490;SDS011;11412;50.802;4.350;2022-08-20T07:21:09;17.83;;;5.53;;
22490;SDS011;11412;50.802;4.350;2022-08-20T07:23:36;13.60;;;5.70;;
22490;SDS011;11412;50.802;4.350;2022-08-20T07:26:01;15.90;;;5.72;;
22490;SDS011;11412;50.802;4.350;2022-08-20T07:28:28;13.90;;;5.45;;
22490;SDS011;11412;50.802;4.350;2022-08-20T07:30:56;16.23;;;6.15;;
22490;SDS011;11412;50.802;4.350;2022-08-20T07:33:41;15.23;;;5.43;;
22490;SDS011;11412;50.802;4.350;2022-08-20T07:36:08;15.45;;;5.72;;
22490;SDS011;11412;50.802;4.350;2022-08-20T07:38:35;13.93;;;5.78;;
22490;SDS011;11412;50.802;4.350;2022-08-20T07:41:06;15.15;;;5.70;;
22490;SDS011;11412;50.802;4.350;2022-08-20T07:43:34;17.13;;;5.35;;
22490;SDS011;11412;50.802;4.350;2022-08-20T07:46:01;15.32;;;5.88;;
22490;SDS011;11412;50.802;4.350;2022-08-20T07:48:31;15.88;;;6.32;;
22490;SDS011;11412;50.802;4.350;2022-08-20T07:50:59;16.52;;;5.13;;
22490;SDS011;11412;50.802;4.350;2022-08-20T07:53:27;18.27;;;6.13;;
22490;SDS011;11412;50.802;4.350;2022-08-20T07:55:54;16.08;;;5.82;;
22490;SDS011;11412;50.802;4.350;2022-08-20T07:58:21;19.13;;;7.03;;
22490;SDS011;11412;50.802;4.350;2022-08-20T08:00:48;12.15;;;5.85;;
22490;SDS011;11412;50.802;4.350;2022-08-20T08:03:15;13.25;;;6.15;;
22490;SDS011;11412;50.802;4.350;2022-08-20T08:05:43;13.13;;;5.43;;
22490;SDS011;11412;50.802;4.350;2022-08-20T08:08:11;21.40;;;6.13;;
22490;SDS011;11412;50.802;4.350;2022-08-20T08:10:41;12.02;;;6.20;;
22490;SDS011;11412;50.802;4.350;2022-08-20T08:13:10;14.98;;;6.05;;
22490;SDS011;11412;50.802;4.350;2022-08-20T08:15:38;17.88;;;7.15;;
22490;SDS011;11412;50.802;4.350;2022-08-20T08:18:08;14.00;;;6.30;;
22490;SDS011;11412;50.802;4.350;2022-08-20T08:20:38;20.58;;;6.78;;
22490;SDS011;11412;50.802;4.350;2022-08-20T08:23:06;13.77;;;6.43;;
22490;SDS011;11412;50.802;4.350;2022-08-20T08:25:36;13.35;;;6.25;;
22490;SDS011;11412;50.802;4.350;2022-08-20T08:28:07;12.98;;;6.32;;
22490;SDS011;11412;50.802;4.350;2022-08-20T08:30:36;20.73;;;6.75;;
22490;SDS011;11412;50.802;4.350;2022-08-20T08:33:04;15.40;;;6.32;;
22490;SDS011;11412;50.802;4.350;2022-08-20T08:35:49;11.50;;;5.93;;
22490;SDS011;11412;50.802;4.350;2022-08-20T08:38:15;9.63;;;5.60;;
22490;SDS011;11412;50.802;4.350;2022-08-20T08:40:41;14.32;;;6.18;;
22490;SDS011;11412;50.802;4.350;2022-08-20T08:43:07;16.35;;;6.10;;
22490;SDS011;11412;50.802;4.350;2022-08-20T08:45:43;10.23;;;5.57;;
22490;SDS011;11412;50.802;4.350;2022-08-20T08:48:12;12.05;;;5.43;;
22490;SDS011;11412;50.802;4.350;2022-08-20T08:50:40;8.25;;;5.40;;
22490;SDS011;11412;50.802;4.350;2022-08-20T08:53:10;17.38;;;5.40;;
22490;SDS011;11412;50.802;4.350;2022-08-20T08:55:44;13.10;;;5.03;;
22490;SDS011;11412;50.802;4.350;2022-08-20T08:58:09;14.68;;;5.28;;
22490;SDS011;11412;50.802;4.350;2022-08-20T09:00:35;12.10;;;4.30;;
22490;SDS011;11412;50.802;4.350;2022-08-20T09:03:05;12.82;;;5.13;;
22490;SDS011;11412;50.802;4.350;2022-08-20T09:06:01;10.98;;;4.97;;
22490;SDS011;11412;50.802;4.350;2022-08-20T09:08:47;14.10;;;4.55;;
22490;SDS011;11412;50.802;4.350;2022-08-20T09:11:17;11.05;;;4.28;;
22490;SDS011;11412;50.802;4.350;2022-08-20T09:13:44;13.40;;;4.07;;
22490;SDS011;11412;50.802;4.350;2022-08-20T09:16:11;9.63;;;3.60;;
22490;SDS011;11412;50.802;4.350;2022-08-20T09:18:37;11.55;;;3.35;;
22490;SDS011;11412;50.802;4.350;2022-08-20T09:21:03;10.30;;;2.55;;
22490;SDS011;11412;50.802;4.350;2022-08-20T09:23:29;8.73;;;2.67;;
22490;SDS011;11412;50.802;4.350;2022-08-20T09:25:55;7.80;;;2.88;;
22490;SDS011;11412;50.802;4.350;2022-08-20T09:28:21;8.93;;;2.72;;
22490;SDS011;11412;50.802;4.350;2022-08-20T09:30:46;15.77;;;3.17;;
22490;SDS011;11412;50.802;4.350;2022-08-20T09:33:12;7.18;;;2.50;;
22490;SDS011;11412;50.802;4.350;2022-08-20T09:35:38;8.55;;;2.58;;
22490;SDS011;11412;50.802;4.350;2022-08-20T09:38:05;7.40;;;2.15;;
22490;SDS011;11412;50.802;4.350;2022-08-20T09:40:31;9.98;;;2.58;;
22490;SDS011;11412;50.802;4.350;2022-08-20T09:42:57;6.65;;;1.88;;
22490;SDS011;11412;50.802;4.350;2022-08-20T09:45:22;13.93;;;2.97;;
22490;SDS011;11412;50.802;4.350;2022-08-20T09:47:48;12.02;;;2.17;;
22490;SDS011;11412;50.802;4.350;2022-08-20T09:50:14;6.88;;;2.63;;
22490;SDS011;11412;50.802;4.350;2022-08-20T09:52:41;5.05;;;2.03;;
22490;SDS011;11412;50.802;4.350;2022-08-20T09:58:02;7.60;;;1.98;;
22490;SDS011;11412;50.802;4.350;2022-08-20T10:00:32;8.85;;;2.05;;
22490;SDS011;11412;50.802;4.350;2022-08-20T10:02:58;3.92;;;1.98;;
22490;SDS011;11412;50.802;4.350;2022-08-20T10:05:25;3.78;;;1.77;;
22490;SDS011;11412;50.802;4.350;2022-08-20T10:07:51;9.93;;;2.10;;
22490;SDS011;11412;50.802;4.350;2022-08-20T10:10:17;9.75;;;1.92;;
22490;SDS011;11412;50.802;4.350;2022-08-20T10:12:43;8.50;;;2.05;;
22490;SDS011;11412;50.802;4.350;2022-08-20T10:15:10;7.63;;;1.90;;
22490;SDS011;11412;50.802;4.350;2022-08-20T10:17:40;9.07;;;2.13;;
22490;SDS011;11412;50.802;4.350;2022-08-20T10:20:07;6.68;;;1.83;;
22490;SDS011;11412;50.802;4.350;2022-08-20T10:22:35;5.95;;;2.00;;
22490;SDS011;11412;50.802;4.350;2022-08-20T10:25:00;8.80;;;2.17;;
22490;SDS011;11412;50.802;4.350;2022-08-20T10:27:26;5.35;;;1.67;;
22490;SDS011;11412;50.802;4.350;2022-08-20T10:29:52;7.72;;;2.30;;
22490;SDS011;11412;50.802;4.350;2022-08-20T10:32:17;6.20;;;1.70;;
22490;SDS011;11412;50.802;4.350;2022-08-20T10:34:44;9.80;;;2.10;;
22490;SDS011;11412;50.802;4.350;2022-08-20T10:37:17;9.80;;;2.40;;
22490;SDS011;11412;50.802;4.350;2022-08-20T10:39:46;7.38;;;2.15;;
22490;SDS011;11412;50.802;4.350;2022-08-20T10:42:12;7.65;;;1.80;;
22490;SDS011;11412;50.802;4.350;2022-08-20T10:44:38;9.05;;;2.22;;
22490;SDS011;11412;50.802;4.350;2022-08-20T10:47:21;6.05;;;1.65;;
22490;SDS011;11412;50.802;4.350;2022-08-20T10:49:49;6.90;;;2.00;;
22490;SDS011;11412;50.802;4.350;2022-08-20T10:52:17;6.80;;;2.08;;
22490;SDS011;11412;50.802;4.350;2022-08-20T10:54:43;5.75;;;2.10;;
22490;SDS011;11412;50.802;4.350;2022-08-20T10:57:13;5.07;;;1.77;;
22490;SDS011;11412;50.802;4.350;2022-08-20T10:59:44;8.88;;;2.63;;
22490;SDS011;11412;50.802;4.350;2022-08-20T11:02:11;8.63;;;2.00;;
22490;SDS011;11412;50.802;4.350;2022-08-20T11:04:38;10.63;;;3.22;;
22490;SDS011;11412;50.802;4.350;2022-08-20T11:07:23;6.60;;;2.45;;
22490;SDS011;11412;50.802;4.350;2022-08-20T11:09:49;6.40;;;2.85;;
22490;SDS011;11412;50.802;4.350;2022-08-20T11:12:18;11.38;;;2.45;;
22490;SDS011;11412;50.802;4.350;2022-08-20T11:14:45;8.90;;;2.90;;
22490;SDS011;11412;50.802;4.350;2022-08-20T11:17:11;7.00;;;1.88;;
22490;SDS011;11412;50.802;4.350;2022-08-20T11:19:38;5.00;;;1.98;;
22490;SDS011;11412;50.802;4.350;2022-08-20T11:22:06;8.30;;;2.13;;
22490;SDS011;11412;50.802;4.350;2022-08-20T11:24:32;6.43;;;2.25;;
22490;SDS011;11412;50.802;4.350;2022-08-20T11:26:58;9.45;;;2.28;;
22490;SDS011;11412;50.802;4.350;2022-08-20T11:29:23;8.02;;;2.60;;
22490;SDS011;11412;50.802;4.350;2022-08-20T11:31:49;6.85;;;2.63;;
22490;SDS011;11412;50.802;4.350;2022-08-20T11:34:16;8.15;;;2.30;;
22490;SDS011;11412;50.802;4.350;2022-08-20T11:36:42;5.47;;;2.10;;
22490;SDS011;11412;50.802;4.350;2022-08-20T11:39:11;6.07;;;1.95;;
22490;SDS011;11412;50.802;4.350;2022-08-20T11:41:38;8.63;;;2.50;;
22490;SDS011;11412;50.802;4.350;2022-08-20T11:44:05;5.45;;;1.83;;
22490;SDS011;11412;50.802;4.350;2022-08-20T11:46:31;7.43;;;1.90;;
22490;SDS011;11412;50.802;4.350;2022-08-20T11:48:57;7.40;;;2.30;;
22490;SDS011;11412;50.802;4.350;2022-08-20T11:51:23;7.10;;;1.92;;
22490;SDS011;11412;50.802;4.350;2022-08-20T11:53:49;7.72;;;1.83;;
22490;SDS011;11412;50.802;4.350;2022-08-20T11:56:14;7.63;;;1.80;;
22490;SDS011;11412;50.802;4.350;2022-08-20T11:58:42;8.25;;;2.10;;
22490;SDS011;11412;50.802;4.350;2022-08-20T12:01:08;6.78;;;2.35;;
22490;SDS011;11412;50.802;4.350;2022-08-20T12:03:33;6.25;;;1.67;;
22490;SDS011;11412;50.802;4.350;2022-08-20T12:06:00;4.68;;;1.73;;
22490;SDS011;11412;50.802;4.350;2022-08-20T12:08:25;4.20;;;1.88;;
22490;SDS011;11412;50.802;4.350;2022-08-20T12:10:53;7.13;;;2.03;;
22490;SDS011;11412;50.802;4.350;2022-08-20T12:13:24;5.15;;;1.33;;
22490;SDS011;11412;50.802;4.350;2022-08-20T12:15:52;6.03;;;1.60;;
22490;SDS011;11412;50.802;4.350;2022-08-20T12:18:18;6.18;;;1.80;;
22490;SDS011;11412;50.802;4.350;2022-08-20T12:20:44;8.10;;;3.20;;
22490;SDS011;11412;50.802;4.350;2022-08-20T12:23:10;5.30;;;1.77;;
22490;SDS011;11412;50.802;4.350;2022-08-20T12:25:36;6.38;;;1.77;;
22490;SDS011;11412;50.802;4.350;2022-08-20T12:28:02;5.65;;;1.88;;
22490;SDS011;11412;50.802;4.350;2022-08-20T12:30:30;5.97;;;1.60;;
22490;SDS011;11412;50.802;4.350;2022-08-20T12:32:56;6.22;;;1.90;;
22490;SDS011;11412;50.802;4.350;2022-08-20T12:35:22;5.45;;;1.90;;
22490;SDS011;11412;50.802;4.350;2022-08-20T12:37:48;4.40;;;1.60;;
22490;SDS011;11412;50.802;4.350;2022-08-20T12:40:16;4.05;;;1.55;;
22490;SDS011;11412;50.802;4.350;2022-08-20T12:42:44;6.90;;;1.52;;
22490;SDS011;11412;50.802;4.350;2022-08-20T12:45:09;5.38;;;1.75;;
22490;SDS011;11412;50.802;4.350;2022-08-20T12:47:37;2.47;;;1.25;;
22490;SDS011;11412;50.802;4.350;2022-08-20T12:50:07;3.72;;;1.42;;
22490;SDS011;11412;50.802;4.350;2022-08-20T12:52:44;2.88;;;1.17;;
22490;SDS011;11412;50.802;4.350;2022-08-20T12:55:11;5.60;;;1.45;;
22490;SDS011;11412;50.802;4.350;2022-08-20T12:57:42;3.38;;;1.73;;
22490;SDS011;11412;50.802;4.350;2022-08-20T13:00:51;3.78;;;1.10;;
22490;SDS011;11412;50.802;4.350;2022-08-20T13:03:01;3.53;;;1.30;;
22490;SDS011;11412;50.802;4.350;2022-08-20T13:05:28;6.05;;;1.48;;
22490;SDS011;11412;50.802;4.350;2022-08-20T13:07:54;3.63;;;1.15;;
22490;SDS011;11412;50.802;4.350;2022-08-20T13:10:22;4.65;;;1.50;;
22490;SDS011;11412;50.802;4.350;2022-08-20T13:12:56;4.75;;;1.50;;
22490;SDS011;11412;50.802;4.350;2022-08-20T13:15:22;4.30;;;1.40;;
22490;SDS011;11412;50.802;4.350;2022-08-20T13:17:52;4.68;;;1.38;;
22490;SDS011;11412;50.802;4.350;2022-08-20T13:20:19;1.85;;;1.15;;
22490;SDS011;11412;50.802;4.350;2022-08-20T13:22:45;4.00;;;1.30;;
22490;SDS011;11412;50.802;4.350;2022-08-20T13:25:11;2.28;;;1.30;;
22490;SDS011;11412;50.802;4.350;2022-08-20T13:27:41;4.55;;;1.00;;
22490;SDS011;11412;50.802;4.350;2022-08-20T13:30:08;2.00;;;1.00;;
22490;SDS011;11412;50.802;4.350;2022-08-20T13:32:36;4.70;;;1.38;;
22490;SDS011;11412;50.802;4.350;2022-08-20T13:35:02;4.22;;;1.50;;
22490;SDS011;11412;50.802;4.350;2022-08-20T13:37:29;3.03;;;1.15;;
22490;SDS011;11412;50.802;4.350;2022-08-20T13:39:55;4.07;;;1.70;;
22490;SDS011;11412;50.802;4.350;2022-08-20T13:42:22;5.05;;;1.42;;
22490;SDS011;11412;50.802;4.350;2022-08-20T13:44:47;4.35;;;1.17;;
22490;SDS011;11412;50.802;4.350;2022-08-20T13:47:18;3.83;;;1.20;;
22490;SDS011;11412;50.802;4.350;2022-08-20T13:49:44;3.88;;;1.10;;
22490;SDS011;11412;50.802;4.350;2022-08-20T13:52:10;3.78;;;1.35;;
22490;SDS011;11412;50.802;4.350;2022-08-20T13:54:36;2.15;;;1.10;;
22490;SDS011;11412;50.802;4.350;2022-08-20T13:57:07;3.17;;;1.08;;
22490;SDS011;11412;50.802;4.350;2022-08-20T13:59:35;3.42;;;1.67;;
22490;SDS011;11412;50.802;4.350;2022-08-20T14:02:03;1.92;;;0.98;;
22490;SDS011;11412;50.802;4.350;2022-08-20T14:04:29;3.53;;;1.20;;
22490;SDS011;11412;50.802;4.350;2022-08-20T14:06:55;3.20;;;1.15;;
22490;SDS011;11412;50.802;4.350;2022-08-20T14:09:20;4.82;;;1.15;;
22490;SDS011;11412;50.802;4.350;2022-08-20T14:11:46;5.13;;;1.75;;
22490;SDS011;11412;50.802;4.350;2022-08-20T14:14:12;1.60;;;1.30;;
22490;SDS011;11412;50.802;4.350;2022-08-20T14:16:37;4.78;;;1.20;;
22490;SDS011;11412;50.802;4.350;2022-08-20T14:19:04;4.35;;;1.10;;
22490;SDS011;11412;50.802;4.350;2022-08-20T14:21:30;2.88;;;1.20;;
22490;SDS011;11412;50.802;4.350;2022-08-20T14:23:55;1.30;;;1.08;;
22490;SDS011;11412;50.802;4.350;2022-08-20T14:26:22;2.55;;;1.33;;
22490;SDS011;11412;50.802;4.350;2022-08-20T14:28:48;4.28;;;1.23;;
22490;SDS011;11412;50.802;4.350;2022-08-20T14:31:14;6.10;;;1.40;;
22490;SDS011;11412;50.802;4.350;2022-08-20T14:33:40;2.10;;;1.10;;
22490;SDS011;11412;50.802;4.350;2022-08-20T14:36:05;2.50;;;0.98;;
22490;SDS011;11412;50.802;4.350;2022-08-20T14:38:31;3.53;;;1.48;;
22490;SDS011;11412;50.802;4.350;2022-08-20T14:40:57;4.68;;;1.05;;
22490;SDS011;11412;50.802;4.350;2022-08-20T14:43:22;5.72;;;1.55;;
22490;SDS011;11412;50.802;4.350;2022-08-20T14:45:48;1.75;;;1.30;;
22490;SDS011;11412;50.802;4.350;2022-08-20T14:48:14;3.67;;;1.35;;
22490;SDS011;11412;50.802;4.350;2022-08-20T14:50:39;4.47;;;1.35;;
22490;SDS011;11412;50.802;4.350;2022-08-20T14:53:05;3.28;;;1.20;;
22490;SDS011;11412;50.802;4.350;2022-08-20T14:55:34;4.03;;;1.52;;